createdAt,value
2019-01-21T00:00:16.303Z,20.90
2019-01-21T00:02:44.919Z,21.93
2019-01-21T00:05:13.497Z,23.60
2019-01-21T00:07:42.035Z,23.27
2019-01-21T00:10:10.678Z,22.13
2019-01-21T00:12:39.215Z,23.30
2019-01-21T00:15:09.127Z,21.50
2019-01-21T00:17:37.664Z,23.70
2019-01-21T00:20:07.345Z,22.17
2019-01-21T00:22:35.834Z,23.53
2019-01-21T00:25:05.753Z,25.07
2019-01-21T00:27:34.460Z,22.40
2019-01-21T00:30:03.075Z,24.60
2019-01-21T00:32:31.659Z,23.20
2019-01-21T00:35:00.203Z,24.07
2019-01-21T00:37:28.766Z,23.03
2019-01-21T00:39:57.349Z,23.40
2019-01-21T00:42:26.211Z,22.47
2019-01-21T00:44:54.679Z,21.50
2019-01-21T00:47:29.686Z,21.17
2019-01-21T00:49:53.483Z,21.80
2019-01-21T00:52:21.954Z,21.73
2019-01-21T00:54:51.100Z,21.80
2019-01-21T00:57:19.842Z,23.13
2019-01-21T00:59:48.360Z,20.50
2019-01-21T01:02:17.000Z,21.33
2019-01-21T01:04:45.675Z,21.57
2019-01-21T01:07:14.203Z,20.03
2019-01-21T01:09:42.701Z,22.10
2019-01-21T01:12:11.319Z,23.83
2019-01-21T01:14:39.789Z,21.33
2019-01-21T01:17:08.545Z,22.60
2019-01-21T01:19:37.139Z,22.33
2019-01-21T01:22:05.594Z,22.33
2019-01-21T01:24:34.082Z,24.90
2019-01-21T01:27:02.913Z,24.50
2019-01-21T01:29:31.384Z,24.53
2019-01-21T01:32:00.167Z,24.07
2019-01-21T01:34:28.678Z,24.40
2019-01-21T01:36:57.611Z,24.67
2019-01-21T01:39:26.402Z,22.80
2019-01-21T01:41:54.901Z,22.43
2019-01-21T01:44:23.538Z,24.30
2019-01-21T01:46:52.015Z,22.40
2019-01-21T01:49:20.805Z,22.67
2019-01-21T01:51:49.605Z,22.70
2019-01-21T01:54:18.301Z,24.53
2019-01-21T01:56:47.082Z,24.07
2019-01-21T01:59:15.719Z,23.70
2019-01-21T02:01:44.236Z,24.00
2019-01-21T02:04:12.812Z,24.53
2019-01-21T02:06:41.324Z,24.47
2019-01-21T02:09:09.967Z,24.50
2019-01-21T02:11:38.821Z,22.53
2019-01-21T02:14:07.400Z,25.30
2019-01-21T02:16:35.981Z,24.20
2019-01-21T02:19:04.644Z,24.53
2019-01-21T02:21:34.054Z,25.13
2019-01-21T02:24:04.993Z,23.20
2019-01-21T02:26:34.420Z,25.27
2019-01-21T02:29:08.581Z,23.10
2019-01-21T02:32:13.213Z,24.20
2019-01-21T02:34:53.492Z,22.80
2019-01-21T02:37:30.792Z,22.67
2019-01-21T02:40:17.317Z,22.07
2019-01-21T02:43:03.588Z,23.83
2019-01-21T02:45:51.566Z,23.93
2019-01-21T02:48:29.175Z,23.50
2019-01-21T02:51:20.175Z,22.83
2019-01-21T02:54:00.507Z,23.73
2019-01-21T02:56:34.808Z,24.00
2019-01-21T02:59:12.544Z,23.53
2019-01-21T03:01:49.822Z,22.97
2019-01-21T03:04:27.212Z,23.50
2019-01-21T03:06:58.857Z,24.40
2019-01-21T03:09:36.310Z,23.60
2019-01-21T03:12:13.604Z,24.50
2019-01-21T03:15:00.051Z,21.00
2019-01-21T03:17:42.728Z,22.90
2019-01-21T03:20:32.436Z,22.80
2019-01-21T03:23:22.173Z,22.53
2019-01-21T03:26:17.580Z,22.73
2019-01-21T03:28:52.033Z,22.60
2019-01-21T03:31:32.390Z,22.30
2019-01-21T03:34:15.828Z,24.13
2019-01-21T03:36:56.189Z,22.97
2019-01-21T03:39:56.108Z,22.30
2019-01-21T03:42:42.180Z,21.07
2019-01-21T03:45:36.336Z,21.53
2019-01-21T03:48:07.898Z,20.43
2019-01-21T03:50:42.451Z,22.53
2019-01-21T03:53:19.828Z,21.30
2019-01-21T03:55:50.931Z,19.90
2019-01-21T03:58:28.344Z,21.77
2019-01-21T04:01:14.955Z,22.40
2019-01-21T04:04:01.195Z,22.60
2019-01-21T04:06:32.758Z,23.53
2019-01-21T04:09:16.204Z,23.77
2019-01-21T04:11:48.060Z,21.60
2019-01-21T04:14:22.944Z,21.07
2019-01-21T04:17:27.431Z,23.07
2019-01-21T04:20:18.267Z,23.70
2019-01-21T04:22:52.487Z,22.77
2019-01-21T04:25:30.392Z,24.50
2019-01-21T04:28:16.832Z,23.70
2019-01-21T04:30:54.296Z,24.00
2019-01-21T04:33:43.896Z,22.93
2019-01-21T04:36:33.214Z,21.57
2019-01-21T04:39:10.847Z,24.57
2019-01-21T04:42:03.359Z,25.20
2019-01-21T04:44:37.896Z,23.43
2019-01-21T04:47:21.747Z,24.33
2019-01-21T04:50:08.603Z,21.90
2019-01-21T04:52:49.800Z,21.87
2019-01-21T04:55:42.542Z,22.30
2019-01-21T04:58:38.270Z,23.90
2019-01-21T05:01:12.359Z,23.07
2019-01-21T05:03:46.535Z,24.70
2019-01-21T05:06:30.006Z,24.70
2019-01-21T05:09:04.725Z,21.80
2019-01-21T05:11:39.336Z,25.23
2019-01-21T05:14:26.004Z,23.73
2019-01-21T05:17:12.447Z,23.70
2019-01-21T05:19:46.721Z,25.17
2019-01-21T05:22:27.427Z,22.27
2019-01-21T05:25:21.291Z,21.90
2019-01-21T05:27:58.741Z,23.53
2019-01-21T05:30:55.348Z,23.10
2019-01-21T05:33:36.372Z,22.87
2019-01-21T05:36:23.285Z,25.13
2019-01-21T05:38:57.670Z,24.93
2019-01-21T05:41:51.290Z,24.07
2019-01-21T05:44:46.788Z,24.07
2019-01-21T05:47:37.672Z,24.97
2019-01-21T05:50:33.240Z,23.90
2019-01-21T05:53:19.844Z,25.67
2019-01-21T05:56:13.670Z,24.53
2019-01-21T05:59:09.394Z,24.90
2019-01-21T06:01:57.181Z,25.07
2019-01-21T06:04:46.677Z,23.30
2019-01-21T06:07:28.417Z,23.17
2019-01-21T06:10:14.828Z,24.23
2019-01-21T06:12:55.117Z,24.87
2019-01-21T06:15:35.748Z,23.83
2019-01-21T06:18:19.562Z,24.93
2019-01-21T06:20:54.405Z,24.00
2019-01-21T06:23:28.935Z,26.30
2019-01-21T06:26:09.316Z,23.77
2019-01-21T06:28:56.826Z,27.27
2019-01-21T06:31:28.455Z,27.50
2019-01-21T06:34:23.816Z,24.90
2019-01-21T06:37:01.072Z,26.50
2019-01-21T06:39:38.422Z,23.90
2019-01-21T06:42:12.885Z,24.57
2019-01-21T06:44:50.101Z,27.10
2019-01-21T06:47:33.567Z,25.13
2019-01-21T06:50:13.986Z,24.57
2019-01-21T06:53:05.437Z,24.43
2019-01-21T06:55:42.849Z,24.30
2019-01-21T06:58:20.453Z,26.07
2019-01-21T07:01:13.048Z,26.37
2019-01-21T07:03:50.356Z,25.50
2019-01-21T07:06:25.056Z,26.30
2019-01-21T07:09:17.907Z,27.10
2019-01-21T07:12:14.749Z,25.00
2019-01-21T07:14:55.114Z,27.17
2019-01-21T07:17:39.060Z,27.70
2019-01-21T07:20:22.619Z,26.57
2019-01-21T07:22:54.306Z,27.50
2019-01-21T07:25:37.682Z,25.80
2019-01-21T07:28:12.410Z,26.07
2019-01-21T07:31:02.073Z,26.73
2019-01-21T07:33:48.653Z,25.33
2019-01-21T07:36:36.391Z,26.20
2019-01-21T07:39:22.988Z,26.33
2019-01-21T07:42:06.326Z,26.30
2019-01-21T07:44:43.476Z,24.23
2019-01-21T07:47:20.826Z,24.40
2019-01-21T07:49:55.004Z,24.73
2019-01-21T07:52:32.422Z,28.40
2019-01-21T07:55:31.079Z,26.80
2019-01-21T07:58:24.907Z,27.27
2019-01-21T08:01:08.339Z,26.67
2019-01-21T08:04:08.165Z,30.07
2019-01-21T08:06:42.314Z,25.80
2019-01-21T08:09:19.634Z,26.80
2019-01-21T08:12:25.525Z,26.83
2019-01-21T08:15:01.700Z,26.13
2019-01-21T08:17:45.022Z,25.57
2019-01-21T08:20:19.274Z,28.10
2019-01-21T08:23:06.986Z,26.93
2019-01-21T08:25:47.382Z,26.43
2019-01-21T08:28:19.047Z,28.33
2019-01-21T08:30:56.379Z,26.80
2019-01-21T08:33:33.922Z,28.47
2019-01-21T08:36:18.938Z,26.90
2019-01-21T08:39:15.870Z,28.80
2019-01-21T08:41:50.414Z,29.13
2019-01-21T08:44:39.653Z,28.43
2019-01-21T08:47:31.204Z,28.30
2019-01-21T08:50:18.794Z,27.90
2019-01-21T08:52:59.541Z,27.37
2019-01-21T08:55:33.965Z,28.10
2019-01-21T08:58:17.270Z,28.13
2019-01-21T09:01:08.163Z,29.17
2019-01-21T09:03:54.595Z,25.33
2019-01-21T09:06:26.251Z,29.17
2019-01-21T09:09:04.855Z,27.60
2019-01-21T09:11:57.092Z,27.77
2019-01-21T09:14:45.093Z,27.50
2019-01-21T09:17:22.817Z,29.10
2019-01-21T09:20:10.801Z,26.50
2019-01-21T09:23:17.129Z,27.10
2019-01-21T09:25:57.607Z,27.77
2019-01-21T09:29:01.695Z,26.77
2019-01-21T09:31:38.847Z,26.00
2019-01-21T09:34:22.568Z,28.20
2019-01-21T09:37:10.593Z,28.87
2019-01-21T09:39:51.053Z,26.53
2019-01-21T09:42:31.485Z,27.43
2019-01-21T09:45:08.991Z,27.90
2019-01-21T09:47:36.395Z,27.60
2019-01-21T09:50:06.011Z,29.73
2019-01-21T09:52:34.702Z,28.73
2019-01-21T09:55:03.375Z,27.30
2019-01-21T09:57:33.450Z,27.73
2019-01-21T10:00:03.041Z,28.83
2019-01-21T10:02:33.480Z,28.23
2019-01-21T10:05:02.543Z,28.57
2019-01-21T10:07:33.193Z,30.30
2019-01-21T10:10:33.104Z,28.73
2019-01-21T10:13:38.979Z,27.63
2019-01-21T10:16:28.885Z,28.50
2019-01-21T10:19:16.906Z,29.70
2019-01-21T10:22:03.714Z,28.93
2019-01-21T10:24:56.295Z,27.80
2019-01-21T10:27:45.693Z,30.23
2019-01-21T10:30:41.150Z,28.47
2019-01-21T10:33:34.155Z,28.23
2019-01-21T10:36:28.358Z,29.47
2019-01-21T10:39:09.334Z,29.43
2019-01-21T10:41:42.842Z,29.07
2019-01-21T10:44:28.370Z,32.20
2019-01-21T10:47:09.017Z,28.83
2019-01-21T10:49:46.345Z,29.90
2019-01-21T10:52:23.931Z,31.77
2019-01-21T10:55:01.433Z,28.67
2019-01-21T10:57:56.017Z,28.13
2019-01-21T11:00:48.779Z,29.87
2019-01-21T11:03:26.119Z,29.77
2019-01-21T11:06:00.312Z,30.80
2019-01-21T11:08:49.495Z,29.70
2019-01-21T11:11:32.908Z,31.30
2019-01-21T11:14:20.738Z,30.87
2019-01-21T11:17:10.146Z,31.70
2019-01-21T11:19:47.650Z,32.10
2019-01-21T11:22:19.638Z,29.90
2019-01-21T11:24:53.849Z,31.10
2019-01-21T11:27:28.273Z,30.37
2019-01-21T11:30:19.665Z,29.57
2019-01-21T11:32:51.404Z,29.20
2019-01-21T11:35:34.911Z,29.97
2019-01-21T11:38:06.558Z,29.87
2019-01-21T11:40:44.119Z,28.73
2019-01-21T11:43:24.821Z,29.87
2019-01-21T11:46:11.491Z,30.30
2019-01-21T11:48:49.128Z,28.73
2019-01-21T11:51:46.234Z,29.40
2019-01-21T11:54:20.884Z,30.53
2019-01-21T11:56:58.419Z,28.97
2019-01-21T11:59:36.194Z,27.93
2019-01-21T12:02:24.591Z,29.03
2019-01-21T12:04:56.331Z,28.07
2019-01-21T12:07:33.471Z,26.57
2019-01-21T12:10:24.312Z,26.50
2019-01-21T12:13:16.635Z,27.30
2019-01-21T12:15:57.297Z,27.67
2019-01-21T12:18:28.944Z,26.17
2019-01-21T12:21:12.544Z,27.37
2019-01-21T12:23:46.976Z,27.07
2019-01-21T12:26:39.446Z,26.40
2019-01-21T12:29:13.576Z,28.30
2019-01-21T12:31:51.158Z,27.37
2019-01-21T12:34:28.516Z,26.20
2019-01-21T12:37:00.213Z,25.90
2019-01-21T12:39:57.303Z,27.33
2019-01-21T12:42:29.035Z,26.80
2019-01-21T12:45:09.464Z,28.53
2019-01-21T12:47:53.087Z,25.60
2019-01-21T12:50:42.941Z,27.67
2019-01-21T12:53:45.906Z,27.77
2019-01-21T12:56:42.225Z,26.97
2019-01-21T12:59:43.790Z,27.70
2019-01-21T13:02:24.078Z,30.00
2019-01-21T13:04:55.859Z,27.43
2019-01-21T13:07:33.181Z,28.40
2019-01-21T13:10:21.129Z,25.87
2019-01-21T13:13:09.079Z,27.10
2019-01-21T13:15:52.613Z,27.47
2019-01-21T13:18:33.502Z,28.33
2019-01-21T13:21:10.958Z,26.57
2019-01-21T13:23:42.510Z,26.80
2019-01-21T13:26:14.199Z,28.63
2019-01-21T13:28:45.859Z,29.17
2019-01-21T13:31:26.324Z,28.13
2019-01-21T13:34:03.985Z,28.27
2019-01-21T13:36:41.057Z,29.30
2019-01-21T13:39:27.538Z,29.93
2019-01-21T13:42:04.877Z,27.33
2019-01-21T13:48:09.896Z,27.03
2019-01-21T13:50:41.589Z,26.57
2019-01-21T13:53:21.994Z,26.97
2019-01-21T13:56:18.912Z,27.40
2019-01-21T13:59:06.174Z,26.70
2019-01-21T14:02:06.105Z,24.90
2019-01-21T14:05:00.367Z,28.73
2019-01-21T14:07:47.257Z,27.27
2019-01-21T14:10:29.642Z,25.50
2019-01-21T14:13:07.408Z,27.60
2019-01-21T14:15:42.088Z,27.43
2019-01-21T14:18:30.002Z,26.73
2019-01-21T14:21:22.817Z,27.37
2019-01-21T14:23:57.829Z,25.47
2019-01-21T14:27:05.273Z,25.07
2019-01-21T14:29:42.830Z,26.90
2019-01-21T14:32:23.483Z,25.03
2019-01-21T14:34:57.995Z,24.97
2019-01-21T14:37:44.603Z,26.00
2019-01-21T14:40:34.412Z,24.97
2019-01-21T14:43:17.771Z,27.20
2019-01-21T14:45:58.567Z,25.13
2019-01-21T14:48:32.757Z,25.10
2019-01-21T14:51:07.346Z,25.83
2019-01-21T14:53:47.911Z,26.13
2019-01-21T14:56:46.569Z,24.90
2019-01-21T14:59:28.728Z,25.30
2019-01-21T15:02:05.964Z,25.73
2019-01-21T15:04:53.962Z,25.30
2019-01-21T15:07:25.690Z,26.00
2019-01-21T15:10:21.076Z,26.23
2019-01-21T15:12:55.377Z,26.30
2019-01-21T15:15:38.802Z,26.23
2019-01-21T15:18:13.224Z,27.00
2019-01-21T15:21:03.056Z,24.73
2019-01-21T15:23:40.349Z,26.60
2019-01-21T15:26:20.974Z,25.80
2019-01-21T15:28:58.515Z,26.93
2019-01-21T15:31:40.354Z,27.20
2019-01-21T15:34:19.139Z,26.47
2019-01-21T15:36:59.591Z,26.37
2019-01-21T15:39:53.954Z,27.10
2019-01-21T15:42:32.048Z,29.20
2019-01-21T15:45:25.459Z,30.63
2019-01-21T15:51:21.054Z,27.30
2019-01-21T15:54:06.101Z,29.33
2019-01-21T15:56:50.173Z,28.40
2019-01-21T15:59:34.212Z,30.00
2019-01-21T16:02:13.932Z,28.80
2019-01-21T16:05:00.196Z,28.30
2019-01-21T16:07:46.209Z,29.27
2019-01-21T16:10:47.763Z,28.60
2019-01-21T16:16:35.487Z,28.60
2019-01-21T16:19:22.319Z,27.90
2019-01-21T16:22:15.095Z,29.23
2019-01-21T16:25:37.695Z,28.10
2019-01-21T16:28:24.924Z,29.73
2019-01-21T16:31:05.038Z,30.73
2019-01-21T16:37:08.837Z,31.20
2019-01-21T16:39:52.192Z,29.23
2019-01-21T16:42:19.036Z,30.50
2019-01-21T16:44:47.727Z,31.47
2019-01-21T16:47:16.504Z,30.43
2019-01-21T16:49:45.358Z,29.57
2019-01-21T16:52:13.984Z,31.53
2019-01-21T16:54:42.815Z,31.50
2019-01-21T17:00:13.042Z,31.57
2019-01-21T17:02:41.497Z,30.90
2019-01-21T17:05:13.615Z,31.10
2019-01-21T17:07:47.849Z,32.03
2019-01-21T17:10:39.086Z,31.10
2019-01-21T17:13:00.109Z,31.03
2019-01-21T17:15:28.730Z,31.87
2019-01-21T17:17:57.453Z,31.90
2019-01-21T17:20:26.051Z,33.50
2019-01-21T17:23:31.714Z,32.53
2019-01-21T17:25:54.740Z,33.87
2019-01-21T17:28:23.350Z,32.00
2019-01-21T17:30:52.266Z,32.37
2019-01-21T17:33:20.995Z,35.50
2019-01-21T17:35:49.535Z,33.13
2019-01-21T17:38:18.039Z,32.43
2019-01-21T17:40:46.621Z,33.73
2019-01-21T17:43:15.087Z,30.87
2019-01-21T17:45:43.734Z,33.60
2019-01-21T17:48:12.335Z,31.00
2019-01-21T17:50:40.994Z,32.30
2019-01-21T17:53:10.062Z,32.70
2019-01-21T17:55:42.980Z,30.93
2019-01-21T17:58:11.467Z,32.90
2019-01-21T18:00:40.038Z,33.57
2019-01-21T18:03:08.691Z,33.87
2019-01-21T18:05:37.661Z,32.47
2019-01-21T18:08:06.133Z,34.23
2019-01-21T18:10:34.735Z,33.80
2019-01-21T18:13:19.838Z,31.70
2019-01-21T18:15:50.484Z,31.90
2019-01-21T18:18:19.090Z,35.90
2019-01-21T18:20:47.678Z,32.00
2019-01-21T18:23:16.276Z,34.27
2019-01-21T18:25:45.151Z,32.90
2019-01-21T18:28:13.621Z,34.23
2019-01-21T18:30:44.376Z,34.50
2019-01-21T18:33:13.253Z,33.90
2019-01-21T18:35:42.146Z,35.97
2019-01-21T18:38:10.898Z,33.53
2019-01-21T18:40:39.537Z,34.67
2019-01-21T18:43:18.763Z,34.80
2019-01-21T18:45:56.204Z,34.80
2019-01-21T18:48:24.843Z,34.90
2019-01-21T18:51:02.363Z,34.43
2019-01-21T18:53:29.693Z,35.77
2019-01-21T18:55:58.911Z,35.93
2019-01-21T18:58:27.487Z,33.73
2019-01-21T19:00:56.867Z,35.80
2019-01-21T19:03:42.014Z,37.03
2019-01-21T19:06:10.718Z,35.67
2019-01-21T19:08:39.843Z,34.20
2019-01-21T19:11:08.393Z,34.17
2019-01-21T19:13:37.037Z,34.87
2019-01-21T19:16:05.729Z,38.70
2019-01-21T19:18:34.300Z,39.27
2019-01-21T19:21:02.782Z,36.67
2019-01-21T19:23:31.453Z,36.47
2019-01-21T19:26:00.130Z,35.73
2019-01-21T19:28:29.383Z,34.10
2019-01-21T19:30:58.030Z,33.50
2019-01-21T19:33:28.127Z,35.20
2019-01-21T19:35:58.082Z,35.07
2019-01-21T19:38:28.918Z,38.17
2019-01-21T19:40:57.690Z,38.70
2019-01-21T19:43:26.217Z,37.60
2019-01-21T19:45:54.951Z,34.43
2019-01-21T19:48:23.480Z,34.27
2019-01-21T19:50:52.036Z,37.30
2019-01-21T19:53:24.996Z,37.00
2019-01-21T19:55:53.565Z,35.43
2019-01-21T19:58:25.432Z,36.77
2019-01-21T20:00:54.007Z,37.00
2019-01-21T20:03:22.631Z,37.90
2019-01-21T20:05:51.532Z,35.37
2019-01-21T20:08:20.155Z,33.97
2019-01-21T20:10:48.739Z,36.60
2019-01-21T20:13:18.237Z,37.63
2019-01-21T20:15:46.965Z,37.30
2019-01-21T20:18:17.042Z,38.30
2019-01-21T20:20:46.941Z,36.57
2019-01-21T20:23:16.501Z,37.20
2019-01-21T20:25:45.339Z,37.27
2019-01-21T20:28:15.292Z,38.20
2019-01-21T20:30:44.195Z,39.00
2019-01-21T20:33:12.744Z,36.73
2019-01-21T20:35:57.363Z,38.90
2019-01-21T20:38:28.881Z,36.77
2019-01-21T20:41:00.630Z,36.27
2019-01-21T20:43:29.235Z,37.00
2019-01-21T20:45:57.844Z,39.30
2019-01-21T20:48:26.494Z,37.77
2019-01-21T20:50:55.142Z,38.80
2019-01-21T20:53:25.265Z,37.80
2019-01-21T20:55:53.869Z,38.37
2019-01-21T20:58:22.428Z,38.70
2019-01-21T21:00:54.271Z,39.47
2019-01-21T21:03:22.870Z,35.77
2019-01-21T21:05:54.082Z,38.07
2019-01-21T21:08:22.757Z,36.73
2019-01-21T21:10:51.615Z,38.70
2019-01-21T21:13:20.277Z,38.77
2019-01-21T21:15:48.892Z,37.00
2019-01-21T21:18:18.935Z,38.53
2019-01-21T21:20:47.449Z,39.00
2019-01-21T21:23:15.973Z,38.13
2019-01-21T21:25:44.596Z,38.07
2019-01-21T21:28:13.182Z,39.90
2019-01-21T21:30:41.751Z,39.87
2019-01-21T21:33:10.377Z,39.10
2019-01-21T21:35:39.337Z,40.10
2019-01-21T21:38:07.964Z,37.20
2019-01-21T21:40:36.522Z,37.20
2019-01-21T21:43:05.234Z,38.03
2019-01-21T21:45:34.133Z,39.90
2019-01-21T21:48:02.799Z,38.30
2019-01-21T21:50:31.860Z,38.10
2019-01-21T21:53:00.837Z,37.90
2019-01-21T21:55:30.029Z,40.00
2019-01-21T21:57:59.000Z,39.90
2019-01-21T22:00:28.784Z,36.57
2019-01-21T22:02:57.418Z,38.20
2019-01-21T22:05:26.644Z,37.47
2019-01-21T22:07:55.265Z,38.27
2019-01-21T22:10:27.489Z,39.10
2019-01-21T22:12:56.109Z,39.37
2019-01-21T22:15:25.401Z,38.30
2019-01-21T22:17:55.591Z,41.80
2019-01-21T22:20:25.067Z,40.43
2019-01-21T22:22:53.649Z,37.97
2019-01-21T22:25:24.034Z,39.80
2019-01-21T22:27:52.678Z,39.63
2019-01-21T22:30:25.712Z,38.33
2019-01-21T22:32:54.557Z,37.30
2019-01-21T22:35:23.466Z,39.17
2019-01-21T22:37:52.078Z,38.77
2019-01-21T22:40:22.089Z,39.33
2019-01-21T22:42:52.462Z,38.07
2019-01-21T22:45:21.355Z,41.53
2019-01-21T22:47:50.809Z,38.47
2019-01-21T22:50:19.663Z,37.23
2019-01-21T22:52:48.195Z,39.53
2019-01-21T22:55:17.187Z,40.80
2019-01-21T22:57:45.832Z,39.30
2019-01-21T23:00:17.491Z,37.83
2019-01-21T23:02:46.311Z,38.27
2019-01-21T23:05:14.928Z,39.13
2019-01-21T23:07:43.594Z,38.63
2019-01-21T23:10:12.134Z,36.63
2019-01-21T23:12:40.691Z,38.30
2019-01-21T23:15:09.868Z,36.40
2019-01-21T23:17:38.792Z,38.30
2019-01-21T23:20:10.101Z,38.30
2019-01-21T23:22:38.717Z,36.90
2019-01-21T23:25:08.114Z,40.37
2019-01-21T23:27:37.030Z,37.43
2019-01-21T23:30:20.583Z,37.07
2019-01-21T23:32:49.145Z,37.00
2019-01-21T23:35:18.238Z,38.90
2019-01-21T23:37:46.811Z,37.37
2019-01-21T23:40:15.598Z,38.33
2019-01-21T23:42:45.787Z,35.80
2019-01-21T23:45:14.590Z,36.80
2019-01-21T23:47:43.291Z,37.10
2019-01-21T23:50:13.924Z,37.47
2019-01-21T23:52:43.070Z,37.20
2019-01-21T23:55:12.680Z,36.10
2019-01-21T23:57:41.293Z,36.77
